Time;durP1;ratioP1;P1;durP2;ratioP2;P2;SDS_P1;SDS_P2;PMS_P1;PMS_P2;Temp;Humidity;BMP_temperature;BMP_pressure;BME280_temperature;BME280_humidity;BME280_pressure;Samples;Min_cycle;Max_cycle;Signal;HPM_P1;HPM_P2
2023/03/08 00:00:24;;;;;;;13.50;7.93;;;;;;;6.85;100.00;98356.44;5080856;28;20036;-76
2023/03/08 00:02:52;;;;;;;15.55;9.05;;;;;;;6.87;100.00;98354.16;5067347;27;20023;-77
2023/03/08 00:05:17;;;;;;;14.65;8.20;;;;;;;6.86;100.00;98347.84;5101396;27;20044;-77
2023/03/08 00:07:43;;;;;;;11.70;7.60;;;;;;;6.88;100.00;98359.38;5098557;27;20455;-77
2023/03/08 00:10:09;;;;;;;13.10;7.82;;;;;;;6.89;100.00;98351.91;5090268;27;20054;-78
2023/03/08 00:12:34;;;;;;;12.50;8.23;;;;;;;6.89;100.00;98343.63;5081317;27;20120;-77
2023/03/08 00:15:00;;;;;;;11.85;8.35;;;;;;;6.89;100.00;98332.59;5097493;28;20031;-77
2023/03/08 00:17:25;;;;;;;12.38;8.40;;;;;;;6.89;100.00;98319.59;5117951;27;20042;-77
2023/03/08 00:19:51;;;;;;;11.27;8.23;;;;;;;6.89;100.00;98303.03;5097102;28;20476;-77
2023/03/08 00:22:16;;;;;;;13.60;8.30;;;;;;;6.91;100.00;98289.75;5094985;27;20051;-77
2023/03/08 00:24:42;;;;;;;11.77;8.32;;;;;;;6.91;100.00;98280.66;5100776;28;20034;-77
2023/03/08 00:27:07;;;;;;;10.43;7.50;;;;;;;6.91;100.00;98273.19;5098203;28;20027;-77
2023/03/08 00:29:33;;;;;;;10.50;7.82;;;;;;;6.92;100.00;98261.00;5080237;28;20027;-77
2023/03/08 00:31:58;;;;;;;13.60;8.43;;;;;;;6.92;100.00;98268.47;5078241;28;20026;-77
2023/03/08 00:34:24;;;;;;;14.43;8.30;;;;;;;6.92;100.00;98263.75;5080312;28;20034;-77
2023/03/08 00:36:49;;;;;;;13.60;7.15;;;;;;;6.94;100.00;98247.69;5060033;28;20087;-77
2023/03/08 00:39:15;;;;;;;11.50;7.90;;;;;;;6.95;100.00;98242.97;5083832;28;20475;-76
2023/03/08 00:41:41;;;;;;;10.90;7.13;;;;;;;6.96;100.00;98239.06;5127367;27;20022;-76
2023/03/08 00:44:07;;;;;;;12.55;6.88;;;;;;;6.97;100.00;98215.88;5087982;27;20399;-77
2023/03/08 00:46:32;;;;;;;10.50;6.93;;;;;;;6.99;100.00;98196.22;5101350;28;20039;-77
2023/03/08 00:48:58;;;;;;;12.63;7.72;;;;;;;6.99;100.00;98212.78;5071309;28;20030;-77
2023/03/08 00:51:25;;;;;;;9.48;6.70;;;;;;;7.00;100.00;98211.66;5088127;27;20024;-77
2023/03/08 00:53:50;;;;;;;11.60;7.57;;;;;;;7.02;100.00;98196.41;5079251;27;20019;-76
2023/03/08 00:56:15;;;;;;;10.60;7.00;;;;;;;7.00;100.00;98209.72;5101499;27;20032;-77
2023/03/08 00:58:42;;;;;;;10.32;6.90;;;;;;;7.05;100.00;98192.16;5092469;27;20023;-77
2023/03/08 01:01:07;;;;;;;11.98;6.68;;;;;;;7.06;100.00;98188.28;5104329;27;20023;-77
2023/03/08 01:03:33;;;;;;;8.95;6.65;;;;;;;7.05;100.00;98175.59;5084070;28;20019;-77
2023/03/08 01:06:01;;;;;;;8.95;5.90;;;;;;;7.05;100.00;98161.78;5103284;27;20039;-77
2023/03/08 01:08:26;;;;;;;8.90;6.30;;;;;;;7.04;100.00;98154.66;5103361;27;20027;-77
2023/03/08 01:10:56;;;;;;;8.63;6.20;;;;;;;7.04;100.00;98160.19;5092920;27;20495;-77
2023/03/08 01:13:22;;;;;;;8.82;5.90;;;;;;;7.07;100.00;98159.53;5084034;28;20030;-77
2023/03/08 01:15:47;;;;;;;8.48;5.47;;;;;;;7.07;100.00;98143.75;5086916;27;20049;-77
2023/03/08 01:18:12;;;;;;;8.95;5.57;;;;;;;7.08;100.00;98150.13;5087531;27;20038;-76
2023/03/08 01:20:38;;;;;;;6.78;5.13;;;;;;;7.06;100.00;98139.41;5069092;27;20380;-77
2023/03/08 01:23:04;;;;;;;6.93;5.22;;;;;;;7.06;100.00;98119.28;5066988;28;20023;-77
2023/03/08 01:25:29;;;;;;;8.07;5.47;;;;;;;7.07;100.00;98118.94;5070304;27;20027;-77
2023/03/08 01:27:54;;;;;;;7.18;5.18;;;;;;;7.10;100.00;98112.78;5103983;27;20542;-77
2023/03/08 01:30:20;;;;;;;6.72;5.15;;;;;;;7.09;100.00;98113.91;5085432;27;20032;-77
2023/03/08 01:32:45;;;;;;;6.07;4.72;;;;;;;7.10;100.00;98092.63;5090505;27;20035;-77
2023/03/08 01:35:11;;;;;;;8.70;4.88;;;;;;;7.10;100.00;98087.09;5100687;28;20031;-77
2023/03/08 01:37:36;;;;;;;6.40;4.70;;;;;;;7.14;100.00;98088.06;5086720;28;20110;-77
2023/03/08 01:40:03;;;;;;;6.53;4.60;;;;;;;7.10;100.00;98078.81;5096709;27;20083;-77
2023/03/08 01:42:29;;;;;;;6.10;4.57;;;;;;;7.13;100.00;98067.13;5091335;28;20628;-77
2023/03/08 01:44:58;;;;;;;6.20;4.70;;;;;;;7.11;100.00;98064.69;5121173;27;20027;-77
2023/03/08 01:47:28;;;;;;;6.32;4.13;;;;;;;7.13;100.00;98065.19;5070966;27;20114;-77
2023/03/08 01:49:58;;;;;;;7.15;4.10;;;;;;;7.16;100.00;98053.47;5106497;28;20065;-77
2023/03/08 01:52:27;;;;;;;5.90;3.97;;;;;;;7.15;100.00;98051.03;5085814;27;20511;-77
2023/03/08 01:54:57;;;;;;;5.20;3.35;;;;;;;7.14;100.00;98038.38;5091427;27;20035;-76
2023/03/08 01:57:28;;;;;;;5.63;3.30;;;;;;;7.16;100.00;98027.84;5099749;28;20065;-77
2023/03/08 02:00:07;;;;;;;4.28;2.92;;;;;;;7.16;100.00;98028.63;5087740;27;20031;-77
2023/03/08 02:02:46;;;;;;;4.07;3.10;;;;;;;7.17;100.00;98034.97;5070780;28;20038;-77
2023/03/08 02:05:12;;;;;;;4.90;2.95;;;;;;;7.19;100.00;98035.44;5088073;27;20035;-77
2023/03/08 02:07:37;;;;;;;4.20;3.00;;;;;;;7.20;100.00;98027.97;5083477;27;20043;-77
2023/03/08 02:10:03;;;;;;;4.32;2.67;;;;;;;7.22;100.00;98028.47;5120117;27;20030;-77
2023/03/08 02:12:28;;;;;;;3.17;2.53;;;;;;;7.24;100.00;98029.72;5093917;27;20385;-77
2023/03/08 02:14:54;;;;;;;3.55;2.28;;;;;;;7.20;100.00;98026.00;5086506;27;20081;-77
2023/03/08 02:17:19;;;;;;;3.65;2.33;;;;;;;7.23;100.00;98032.81;5103071;27;20024;-77
2023/03/08 02:20:14;;;;;;;2.22;1.85;;;;;;;7.26;100.00;98021.13;5099878;28;20039;-77
2023/03/08 02:22:40;;;;;;;2.08;1.58;;;;;;;7.25;100.00;98023.06;5091448;27;20126;-77
2023/03/08 02:25:16;;;;;;;2.10;1.88;;;;;;;7.24;100.00;98015.09;5073732;28;20024;-77
2023/03/08 02:27:42;;;;;;;2.10;1.52;;;;;;;7.28;100.00;98024.34;5064939;28;20026;-77
2023/03/08 02:30:08;;;;;;;2.20;1.50;;;;;;;7.28;100.00;98016.88;5109729;27;20058;-76
2023/03/08 02:32:34;;;;;;;1.83;1.50;;;;;;;7.31;100.00;98010.69;5085644;27;20039;-77
2023/03/08 02:34:59;;;;;;;3.55;1.50;;;;;;;7.29;100.00;98007.44;5120022;27;20092;-77
2023/03/08 02:37:25;;;;;;;1.40;1.10;;;;;;;7.32;100.00;98011.50;5099251;28;20035;-77
2023/03/08 02:39:50;;;;;;;1.90;1.25;;;;;;;7.32;100.00;98006.78;5097001;27;20034;-76
2023/03/08 02:42:16;;;;;;;1.60;1.10;;;;;;;7.34;100.00;98010.03;5092965;27;20421;-77
2023/03/08 02:44:41;;;;;;;1.35;1.08;;;;;;;7.37;100.00;98003.81;5085767;27;20027;-77
2023/03/08 02:47:07;;;;;;;1.70;0.80;;;;;;;7.41;100.00;97992.09;5082204;27;20047;-77
2023/03/08 02:49:32;;;;;;;1.73;0.80;;;;;;;7.44;100.00;97985.91;5085443;27;20033;-77
2023/03/08 02:51:58;;;;;;;1.35;0.70;;;;;;;7.49;100.00;97971.91;5081967;28;20016;-77
2023/03/08 02:54:23;;;;;;;1.50;0.60;;;;;;;7.49;100.00;97985.72;5102433;27;20034;-77
2023/03/08 02:56:49;;;;;;;1.88;0.90;;;;;;;7.53;100.00;97964.59;5068258;27;20023;-77
2023/03/08 02:59:14;;;;;;;0.60;0.40;;;;;;;7.56;100.00;97969.44;5085535;27;20019;-77
2023/03/08 03:01:40;;;;;;;1.70;0.52;;;;;;;7.60;100.00;97960.16;5085484;27;20028;-77
2023/03/08 03:04:05;;;;;;;0.63;0.40;;;;;;;7.61;100.00;97947.16;5098206;28;20110;-77
2023/03/08 03:06:31;;;;;;;1.33;0.40;;;;;;;7.64;100.00;97952.00;5082045;28;20032;-77
2023/03/08 03:08:56;;;;;;;1.23;0.35;;;;;;;7.66;100.00;97960.75;5102276;27;20091;-76
2023/03/08 03:11:22;;;;;;;1.83;0.32;;;;;;;7.71;100.00;97962.50;5102302;27;20020;-77
2023/03/08 03:13:53;;;;;;;0.85;0.32;;;;;;;7.74;100.00;97976.44;5081498;28;20083;-76
2023/03/08 03:16:18;;;;;;;1.55;0.30;;;;;;;7.77;100.00;97983.25;5061447;28;20027;-77
2023/03/08 03:18:44;;;;;;;2.78;0.60;;;;;;;7.77;100.00;97983.25;5060381;27;20372;-77
2023/03/08 03:21:11;;;;;;;1.58;0.50;;;;;;;7.80;100.00;97983.41;5118883;27;20038;-77
2023/03/08 03:23:36;;;;;;;3.35;0.52;;;;;;;7.83;100.00;97990.22;5081313;28;20027;-77
2023/03/08 03:26:06;;;;;;;1.73;0.55;;;;;;;7.86;100.00;97997.03;5098386;28;20088;-77
2023/03/08 03:28:32;;;;;;;2.22;0.50;;;;;;;7.88;100.00;97995.50;5067929;27;20372;-77
2023/03/08 03:30:57;;;;;;;2.00;0.45;;;;;;;7.89;100.00;98001.88;5068282;27;20163;-77
2023/03/08 03:33:23;;;;;;;2.50;0.60;;;;;;;7.92;100.00;98006.72;5084889;27;20384;-77
2023/03/08 03:35:48;;;;;;;2.28;0.57;;;;;;;7.93;100.00;98003.59;5067764;27;20031;-77
2023/03/08 03:38:14;;;;;;;1.50;0.60;;;;;;;7.95;100.00;98006.84;5081927;27;20027;-76
2023/03/08 03:40:39;;;;;;;2.28;0.80;;;;;;;7.96;100.00;98008.44;5098107;28;20031;-77
2023/03/08 03:43:05;;;;;;;2.70;0.70;;;;;;;7.99;100.00;98004.19;5083636;27;20046;-77
2023/03/08 03:45:30;;;;;;;4.03;1.10;;;;;;;8.02;100.00;98014.59;5101143;27;20051;-77
2023/03/08 03:47:56;;;;;;;3.90;1.05;;;;;;;8.05;100.00;98011.13;5098235;28;20028;-77
2023/03/08 03:50:21;;;;;;;3.08;1.05;;;;;;;8.05;100.00;98013.91;5080930;27;20018;-77
2023/03/08 03:52:48;;;;;;;4.25;1.30;;;;;;;8.07;100.00;98023.47;5101482;27;20043;-77
2023/03/08 03:55:13;;;;;;;2.63;1.50;;;;;;;8.09;100.00;98017.63;5100441;27;20669;-77
2023/03/08 03:57:39;;;;;;;3.17;1.20;;;;;;;8.11;100.00;98020.88;5081473;28;20115;-77
2023/03/08 04:00:05;;;;;;;3.65;1.38;;;;;;;8.13;100.00;98024.06;5099620;27;20035;-77
2023/03/08 04:02:31;;;;;;;3.55;1.40;;;;;;;8.15;100.00;98021.78;5064369;28;20034;-77
2023/03/08 04:04:56;;;;;;;4.03;1.52;;;;;;;8.17;100.00;98025.03;5100891;28;20023;-77
2023/03/08 04:07:21;;;;;;;3.35;1.52;;;;;;;8.18;100.00;98010.06;5084344;27;20027;-77
2023/03/08 04:09:47;;;;;;;3.85;1.40;;;;;;;8.19;100.00;98019.97;5075356;27;20479;-77
2023/03/08 04:12:13;;;;;;;4.50;1.42;;;;;;;8.20;100.00;98029.06;5117705;27;20034;-77
2023/03/08 04:14:39;;;;;;;6.35;1.55;;;;;;;8.22;100.00;98019.31;5100559;27;20487;-77
2023/03/08 04:17:05;;;;;;;6.78;2.17;;;;;;;8.24;100.00;98027.25;5100998;27;20027;-77
2023/03/08 04:19:30;;;;;;;6.85;1.90;;;;;;;8.25;100.00;98026.91;5083870;27;20531;-77
2023/03/08 04:21:56;;;;;;;5.28;2.00;;;;;;;8.27;100.00;98032.94;5097382;28;20027;-77
2023/03/08 04:24:21;;;;;;;6.50;2.00;;;;;;;8.26;100.00;98023.00;5081825;28;20031;-77
2023/03/08 04:26:47;;;;;;;7.18;2.10;;;;;;;8.27;100.00;98018.25;5067375;27;20201;-77
2023/03/08 04:29:12;;;;;;;7.43;2.20;;;;;;;8.29;100.00;98029.81;5117582;27;20038;-77
2023/03/08 04:31:38;;;;;;;7.70;2.30;;;;;;;8.29;100.00;98027.84;5083881;27;20030;-77
2023/03/08 04:34:03;;;;;;;8.27;2.10;;;;;;;8.28;100.00;98026.22;5084091;27;20109;-77
2023/03/08 04:36:29;;;;;;;11.35;2.95;;;;;;;8.29;100.00;98025.06;5067375;28;20114;-77
2023/03/08 04:38:54;;;;;;;9.55;2.90;;;;;;;8.31;100.00;98023.94;5066830;28;20023;-77
2023/03/08 04:41:20;;;;;;;12.25;3.00;;;;;;;8.32;100.00;98014.50;5105417;27;20367;-77
2023/03/08 04:43:53;;;;;;;11.43;2.90;;;;;;;8.31;100.00;98021.97;5087445;28;20045;-77
2023/03/08 04:46:23;;;;;;;13.95;2.50;;;;;;;8.31;100.00;98018.41;5087330;28;20080;-77
2023/03/08 04:48:51;;;;;;;12.32;2.88;;;;;;;8.33;100.00;98021.63;5081543;28;20032;-77
2023/03/08 04:51:17;;;;;;;12.90;3.22;;;;;;;8.30;100.00;98023.13;5089254;28;20529;-77
2023/03/08 04:53:44;;;;;;;13.43;3.30;;;;;;;8.30;100.00;98014.81;5104468;28;20062;-77
2023/03/08 04:56:10;;;;;;;11.90;3.20;;;;;;;8.29;100.00;98025.06;5065592;28;20488;-77
2023/03/08 04:58:35;;;;;;;10.32;2.63;;;;;;;8.29;100.00;98018.75;5088902;28;20046;-77
2023/03/08 05:01:08;;;;;;;13.77;3.30;;;;;;;8.27;100.00;98015.50;5101157;28;20024;-77
2023/03/08 05:03:33;;;;;;;18.88;4.05;;;;;;;8.27;100.00;98013.56;5067871;28;20024;-77
2023/03/08 05:05:59;;;;;;;17.33;3.25;;;;;;;8.27;100.00;98024.63;5081549;28;20060;-77
2023/03/08 05:08:24;;;;;;;19.00;3.38;;;;;;;8.28;100.00;98026.22;5073876;28;20053;-77
2023/03/08 05:10:58;;;;;;;14.23;3.17;;;;;;;8.29;100.00;98030.59;5100920;28;20459;-77
2023/03/08 05:13:27;;;;;;;19.52;3.97;;;;;;;8.29;100.00;98033.38;5078663;28;20020;-77
2023/03/08 05:15:53;;;;;;;18.45;3.63;;;;;;;8.29;100.00;98027.84;5095222;28;20112;-77
2023/03/08 05:18:18;;;;;;;15.35;3.22;;;;;;;8.31;100.00;98035.81;5063478;28;20028;-77
2023/03/08 05:20:44;;;;;;;20.92;4.20;;;;;;;8.33;100.00;98049.28;5100226;28;20039;-77
2023/03/08 05:23:10;;;;;;;18.83;4.28;;;;;;;8.33;100.00;98040.97;5063127;28;20023;-77
2023/03/08 05:25:41;;;;;;;13.70;3.47;;;;;;;8.34;100.00;98040.66;5061567;28;20033;-77
2023/03/08 05:28:06;;;;;;;14.82;3.67;;;;;;;8.34;100.00;98056.44;5085579;27;20023;-78
2023/03/08 05:30:32;;;;;;;15.05;3.92;;;;;;;8.36;100.00;98052.19;5085315;27;20088;-77
2023/03/08 05:32:57;;;;;;;14.90;3.42;;;;;;;8.38;100.00;98063.72;5074838;27;20046;-77
2023/03/08 05:35:23;;;;;;;20.52;4.75;;;;;;;8.41;100.00;98067.78;5084268;27;20047;-77
2023/03/08 05:37:48;;;;;;;11.70;3.47;;;;;;;8.41;100.00;98065.84;5066800;28;20077;-77
2023/03/08 05:40:14;;;;;;;13.75;3.45;;;;;;;8.40;100.00;98066.97;5086976;27;20471;-77
2023/03/08 05:42:39;;;;;;;16.58;3.88;;;;;;;8.43;100.00;98071.84;5091308;28;20066;-77
2023/03/08 05:45:05;;;;;;;16.52;3.75;;;;;;;8.43;100.00;98071.03;5101425;27;20035;-77
2023/03/08 05:47:31;;;;;;;20.50;3.97;;;;;;;8.45;100.00;98074.28;5120605;27;20110;-77
2023/03/08 05:49:56;;;;;;;15.82;3.58;;;;;;;8.46;100.00;98073.91;5084135;27;20027;-77
2023/03/08 05:52:21;;;;;;;16.33;3.80;;;;;;;8.46;100.00;98073.91;5100563;27;20081;-77
2023/03/08 05:54:47;;;;;;;14.80;4.30;;;;;;;8.47;100.00;98063.69;5097742;27;20034;-77
2023/03/08 05:57:13;;;;;;;17.27;3.90;;;;;;;8.52;100.00;98052.38;5095955;28;20035;-77
2023/03/08 05:59:38;;;;;;;15.75;3.45;;;;;;;8.54;100.00;98050.09;5114482;27;20392;-77
2023/03/08 06:02:04;;;;;;;14.32;3.97;;;;;;;8.54;100.00;98058.41;5086660;27;20030;-77
2023/03/08 06:04:29;;;;;;;20.70;4.05;;;;;;;8.55;100.00;98053.66;5083649;27;20050;-77
2023/03/08 06:06:55;;;;;;;16.55;3.55;;;;;;;8.56;100.00;98058.88;5082915;28;20028;-77
2023/03/08 06:09:20;;;;;;;15.27;3.45;;;;;;;8.56;100.00;98049.78;5063807;27;20506;-77
2023/03/08 06:11:46;;;;;;;19.00;3.42;;;;;;;8.56;100.00;98045.03;5099628;28;20054;-76
2023/03/08 06:14:11;;;;;;;23.48;3.95;;;;;;;8.57;100.00;98049.41;5085839;27;20019;-77
2023/03/08 06:16:37;;;;;;;25.02;3.90;;;;;;;8.58;100.00;98048.28;5103005;27;20143;-77
2023/03/08 06:19:02;;;;;;;20.52;3.63;;;;;;;8.60;100.00;98050.69;5085209;27;20031;-76
2023/03/08 06:21:27;;;;;;;17.25;4.13;;;;;;;8.61;100.00;98049.53;5103023;27;20052;-77
2023/03/08 06:23:53;;;;;;;18.02;3.55;;;;;;;8.62;100.00;98057.50;5083857;27;20027;-77
2023/03/08 06:26:18;;;;;;;15.52;4.28;;;;;;;8.64;100.00;98065.47;5099797;28;20027;-77
2023/03/08 06:28:44;;;;;;;17.75;3.80;;;;;;;8.64;100.00;98065.47;5096950;27;20053;-77
2023/03/08 06:31:12;;;;;;;16.15;3.03;;;;;;;8.64;100.00;98068.25;5062938;28;20496;-77
2023/03/08 06:33:37;;;;;;;20.05;3.53;;;;;;;8.67;100.00;98073.09;5112705;27;20050;-77
2023/03/08 06:36:04;;;;;;;20.35;2.85;;;;;;;8.67;100.00;98081.41;5085990;27;20023;-77
2023/03/08 06:38:30;;;;;;;15.80;3.40;;;;;;;8.65;100.00;98084.50;5067842;28;20023;-77
2023/03/08 06:40:56;;;;;;;20.63;3.70;;;;;;;8.69;100.00;98082.69;5101831;27;20023;-77
2023/03/08 06:43:22;;;;;;;13.32;2.47;;;;;;;8.67;100.00;98090.50;5124541;27;20034;-77
2023/03/08 06:45:47;;;;;;;13.25;2.80;;;;;;;8.69;100.00;98092.91;5082174;28;20046;-77
2023/03/08 06:48:13;;;;;;;12.00;2.80;;;;;;;8.70;100.00;98087.06;5065566;28;20050;-77
2023/03/08 06:50:38;;;;;;;13.13;2.80;;;;;;;8.69;100.00;98096.50;5065341;28;20486;-77
2023/03/08 06:53:04;;;;;;;18.40;2.97;;;;;;;8.69;100.00;98096.50;5065665;28;20081;-77
2023/03/08 06:55:30;;;;;;;16.95;3.10;;;;;;;8.71;100.00;98096.16;5045271;28;20024;-77
2023/03/08 06:57:55;;;;;;;14.82;3.25;;;;;;;8.70;100.00;98098.13;5057536;28;20392;-77
2023/03/08 07:00:21;;;;;;;13.60;3.08;;;;;;;8.71;100.00;98101.69;5099283;28;20032;-77
2023/03/08 07:02:47;;;;;;;14.68;2.65;;;;;;;8.72;100.00;98101.38;5081652;28;20523;-77
2023/03/08 07:05:14;;;;;;;14.13;2.50;;;;;;;8.71;100.00;98099.72;5082290;28;20077;-77
2023/03/08 07:07:39;;;;;;;15.20;2.28;;;;;;;8.73;100.00;98100.19;5062683;28;20421;-77
2023/03/08 07:10:05;;;;;;;15.00;2.75;;;;;;;8.73;100.00;98104.94;5068103;28;20048;-77
2023/03/08 07:12:31;;;;;;;15.75;2.63;;;;;;;8.76;100.00;98106.22;5048249;28;20027;-77
2023/03/08 07:14:57;;;;;;;16.60;2.72;;;;;;;8.78;100.00;98103.91;5065845;28;20023;-77
2023/03/08 07:17:23;;;;;;;20.90;3.47;;;;;;;8.78;100.00;98113.03;5098747;28;20678;-76
2023/03/08 07:19:48;;;;;;;15.48;2.45;;;;;;;8.80;100.00;98124.53;5048099;28;20019;-77
2023/03/08 07:22:14;;;;;;;12.80;2.33;;;;;;;8.83;100.00;98115.59;5064805;28;20023;-77
2023/03/08 07:24:39;;;;;;;14.43;2.30;;;;;;;8.85;100.00;98127.09;5068607;28;20026;-77
2023/03/08 07:27:05;;;;;;;16.75;3.20;;;;;;;8.89;100.00;98139.13;5064428;28;20039;-77
2023/03/08 07:29:30;;;;;;;16.55;2.80;;;;;;;8.92;100.00;98132.09;5081485;28;20074;-76
2023/03/08 07:31:56;;;;;;;11.82;2.28;;;;;;;8.91;100.00;98131.31;5068397;28;20516;-77
2023/03/08 07:34:21;;;;;;;11.80;2.08;;;;;;;8.93;100.00;98139.25;5097018;28;20073;-77
2023/03/08 07:36:48;;;;;;;15.57;2.08;;;;;;;8.94;100.00;98127.84;5081239;28;20032;-77
2023/03/08 07:39:14;;;;;;;8.75;1.52;;;;;;;8.94;100.00;98130.63;5072059;28;20093;-77
2023/03/08 07:41:40;;;;;;;12.25;2.33;;;;;;;8.99;100.00;98132.34;5072229;27;20031;-77
2023/03/08 07:44:05;;;;;;;12.20;2.15;;;;;;;8.96;100.00;98133.03;5064031;28;20737;-77
2023/03/08 07:46:31;;;;;;;13.52;2.15;;;;;;;8.98;100.00;98118.84;5101518;27;20039;-77
2023/03/08 07:48:56;;;;;;;9.15;1.80;;;;;;;8.99;100.00;98124.03;5102642;27;20035;-76
2023/03/08 07:51:22;;;;;;;13.98;3.15;;;;;;;8.98;100.00;98125.19;5091226;27;20034;-76
2023/03/08 07:53:47;;;;;;;9.27;2.22;;;;;;;8.98;100.00;98122.44;5113695;27;20035;-77
2023/03/08 07:56:13;;;;;;;7.00;1.60;;;;;;;9.03;100.00;98119.44;5102253;28;20037;-77
2023/03/08 07:58:38;;;;;;;11.88;2.25;;;;;;;9.03;100.00;98122.22;5108449;27;20038;-77
2023/03/08 08:01:09;;;;;;;11.50;2.17;;;;;;;9.05;100.00;98119.88;5067750;28;20023;-76
2023/03/08 08:03:36;;;;;;;10.10;1.85;;;;;;;9.08;100.00;98122.00;5084300;28;20034;-77
2023/03/08 08:06:02;;;;;;;11.77;1.52;;;;;;;9.13;100.00;98132.03;5087476;27;20091;-77
2023/03/08 08:08:28;;;;;;;11.73;2.00;;;;;;;9.16;100.00;98134.94;5084458;28;20023;-76
2023/03/08 08:10:53;;;;;;;9.98;1.92;;;;;;;9.20;100.00;98129.53;5100746;27;20023;-77
2023/03/08 08:13:19;;;;;;;11.52;2.50;;;;;;;9.25;100.00;98140.38;5080398;28;20024;-77
2023/03/08 08:15:57;;;;;;;11.73;2.00;;;;;;;9.29;100.00;98134.97;5101130;27;20050;-76
2023/03/08 08:18:22;;;;;;;9.68;1.73;;;;;;;9.33;100.00;98141.41;5068039;27;20494;-77
2023/03/08 08:20:48;;;;;;;12.75;1.98;;;;;;;9.36;100.00;98146.28;5081847;27;20027;-77
2023/03/08 08:23:13;;;;;;;14.48;1.98;;;;;;;9.41;100.00;98148.81;5098630;28;20043;-77
2023/03/08 08:25:39;;;;;;;12.35;2.00;;;;;;;9.48;100.00;98142.72;5084796;28;20038;-76
2023/03/08 08:28:04;;;;;;;10.60;1.73;;;;;;;9.51;100.00;98148.38;5097326;28;20486;-77
2023/03/08 08:30:30;;;;;;;9.57;1.38;;;;;;;9.61;100.00;98150.72;5098712;28;20023;-77
2023/03/08 08:32:56;;;;;;;12.85;2.00;;;;;;;9.67;100.00;98148.53;5053762;28;20019;-77
2023/03/08 08:35:21;;;;;;;7.72;1.92;;;;;;;9.78;100.00;98140.56;5098808;28;20567;-77
2023/03/08 08:37:47;;;;;;;7.47;1.92;;;;;;;9.89;100.00;98155.56;5079888;28;20430;-77
2023/03/08 08:40:12;;;;;;;12.07;2.05;;;;;;;9.98;100.00;98153.50;5070497;28;20027;-77
2023/03/08 08:42:38;;;;;;;10.15;2.97;;;;;;;10.10;100.00;98157.41;5083017;28;20038;-77
2023/03/08 08:45:04;;;;;;;11.50;2.13;;;;;;;10.18;100.00;98160.06;5081489;28;20073;-76
2023/03/08 08:47:29;;;;;;;11.82;1.85;;;;;;;10.25;100.00;98160.28;5097054;28;20051;-77
2023/03/08 08:49:55;;;;;;;13.85;1.90;;;;;;;10.36;100.00;98165.38;5094562;28;20031;-77
2023/03/08 08:52:20;;;;;;;10.27;1.92;;;;;;;10.47;100.00;98152.63;5077148;28;20024;-77
2023/03/08 08:54:46;;;;;;;15.32;2.22;;;;;;;10.59;100.00;98165.69;5097550;28;20027;-77
2023/03/08 08:57:12;;;;;;;15.32;2.20;;;;;;;10.70;100.00;98164.03;5067189;28;20070;-77
2023/03/08 08:59:38;;;;;;;18.67;2.55;;;;;;;10.83;100.00;98162.00;5100458;28;20127;-77
2023/03/08 09:02:03;;;;;;;15.55;2.75;;;;;;;10.92;100.00;98169.03;5118203;27;20027;-77
2023/03/08 09:04:28;;;;;;;17.88;2.28;;;;;;;11.02;100.00;98173.25;5085303;27;20024;-77
2023/03/08 09:06:54;;;;;;;14.43;2.17;;;;;;;11.11;100.00;98162.00;5084386;28;20551;-77
2023/03/08 09:09:19;;;;;;;13.20;2.38;;;;;;;11.19;100.00;98158.25;5087328;27;20031;-77
2023/03/08 09:11:48;;;;;;;18.98;2.65;;;;;;;11.28;100.00;98161.69;5104236;27;20098;-77
2023/03/08 09:14:13;;;;;;;13.98;2.47;;;;;;;11.36;100.00;98163.47;5103022;27;20038;-77
2023/03/08 09:16:39;;;;;;;21.25;3.70;;;;;;;11.45;100.00;98162.50;5100814;28;20114;-77
2023/03/08 09:19:05;;;;;;;17.15;2.88;;;;;;;11.51;100.00;98173.00;5099113;27;20035;-77
2023/03/08 09:21:31;;;;;;;16.65;3.15;;;;;;;11.57;100.00;98168.00;5084117;28;20036;-77
2023/03/08 09:24:04;;;;;;;21.52;3.00;;;;;;;11.65;100.00;98178.13;5086914;27;20076;-77
2023/03/08 09:26:30;;;;;;;13.20;2.50;;;;;;;11.69;100.00;98170.69;5087467;27;20030;-77
2023/03/08 09:28:57;;;;;;;18.20;2.60;;;;;;;11.77;100.00;98175.25;5086669;27;20027;-77
2023/03/08 09:31:23;;;;;;;17.60;2.80;;;;;;;11.84;100.00;98174.66;5101561;27;20023;-77
2023/03/08 09:33:50;;;;;;;22.58;3.97;;;;;;;11.93;100.00;98180.84;5103955;27;20027;-77
2023/03/08 09:36:16;;;;;;;23.15;3.45;;;;;;;11.99;100.00;98184.97;5104335;27;20034;-77
2023/03/08 09:38:41;;;;;;;18.63;3.08;;;;;;;12.07;100.00;98194.31;5084989;27;20387;-77
2023/03/08 09:41:24;;;;;;;26.63;3.92;;;;;;;12.13;100.00;98192.06;5105356;27;20386;-77
2023/03/08 09:44:03;;;;;;;22.90;3.13;;;;;;;12.16;100.00;98178.22;5123652;27;20037;-77
2023/03/08 09:46:32;;;;;;;16.88;3.25;;;;;;;12.21;100.00;98183.50;5120562;27;20587;-77
2023/03/08 09:48:59;;;;;;;17.77;3.25;;;;;;;12.25;100.00;98189.16;5104006;27;20031;-77
2023/03/08 09:51:28;;;;;;;25.45;3.25;;;;;;;12.32;100.00;98180.97;5099844;28;20049;-77
2023/03/08 09:53:56;;;;;;;27.08;4.00;;;;;;;12.37;100.00;98185.44;5085034;28;20035;-77
2023/03/08 09:56:32;;;;;;;21.83;3.80;;;;;;;12.39;100.00;98174.75;5097403;27;20031;-77
2023/03/08 09:59:07;;;;;;;14.35;2.83;;;;;;;12.43;100.00;98175.66;5071171;27;20039;-77
2023/03/08 10:01:55;;;;;;;22.20;2.88;;;;;;;12.46;100.00;98174.94;5086209;27;20031;-77
2023/03/08 10:05:02;;;;;;;17.42;3.08;;;;;;;12.49;100.00;98171.44;5079701;28;20035;-77
2023/03/08 10:07:45;;;;;;;18.67;2.70;;;;;;;12.54;100.00;98171.16;5038562;28;20064;-77
2023/03/08 10:10:35;;;;;;;12.05;2.50;;;;;;;12.60;100.00;98171.66;5037987;28;20041;-77
2023/03/08 10:13:33;;;;;;;20.40;3.05;;;;;;;12.67;100.00;98185.72;5116426;27;20039;-77
2023/03/08 10:16:21;;;;;;;15.20;2.90;;;;;;;12.71;100.00;98176.28;5122701;27;20742;-77
2023/03/08 10:18:47;;;;;;;22.77;4.18;;;;;;;12.78;100.00;98177.59;5099215;27;20058;-77
2023/03/08 10:21:16;;;;;;;14.90;2.72;;;;;;;12.76;100.00;98183.56;5138316;27;20032;-77
2023/03/08 10:23:43;;;;;;;23.83;3.25;;;;;;;12.79;100.00;98188.41;5090453;27;20054;-77
2023/03/08 10:26:12;;;;;;;17.55;3.08;;;;;;;12.78;100.00;98192.34;5089278;27;20054;-77
2023/03/08 10:28:38;;;;;;;18.83;3.33;;;;;;;12.78;100.00;98191.53;5089394;27;20452;-77
2023/03/08 10:31:21;;;;;;;24.52;3.35;;;;;;;12.79;100.00;98188.41;5090212;27;20106;-77
2023/03/08 10:33:48;;;;;;;21.92;3.88;;;;;;;12.73;100.00;98187.06;5090595;27;20087;-77
2023/03/08 10:36:21;;;;;;;17.48;2.97;;;;;;;12.70;100.00;98196.13;5070873;27;20088;-77
2023/03/08 10:39:07;;;;;;;13.60;3.05;;;;;;;12.71;100.00;98192.19;5087757;27;20047;-77
2023/03/08 10:41:42;;;;;;;14.00;2.45;;;;;;;12.72;100.00;98196.59;5092469;27;20026;-78
2023/03/08 10:44:15;;;;;;;16.15;2.30;;;;;;;12.71;100.00;98186.63;5086790;27;20031;-77
2023/03/08 10:46:48;;;;;;;11.98;2.28;;;;;;;12.74;100.00;98197.03;5082667;28;20104;-77
2023/03/08 10:49:16;;;;;;;13.60;2.08;;;;;;;12.71;100.00;98189.41;5066051;28;20031;-77
2023/03/08 10:51:53;;;;;;;11.38;2.17;;;;;;;12.75;100.00;98193.88;5072097;28;20024;-77
2023/03/08 10:54:18;;;;;;;13.30;2.50;;;;;;;12.75;100.00;98177.16;5049147;28;20027;-77
2023/03/08 10:56:50;;;;;;;12.38;1.80;;;;;;;12.78;100.00;98181.19;5078183;28;20035;-77
2023/03/08 10:59:21;;;;;;;6.45;1.50;;;;;;;12.82;100.00;98184.06;5090418;28;20098;-77
2023/03/08 11:01:48;;;;;;;7.15;1.63;;;;;;;12.83;100.00;98177.31;5049417;28;20127;-77
2023/03/08 11:04:15;;;;;;;9.45;1.75;;;;;;;12.87;100.00;98159.53;5065400;28;20074;-77
2023/03/08 11:06:41;;;;;;;8.02;1.67;;;;;;;12.93;100.00;98160.84;5084513;28;20093;-77
2023/03/08 11:09:26;;;;;;;9.35;1.50;;;;;;;13.04;100.00;98163.00;5089612;28;20028;-77
2023/03/08 11:11:53;;;;;;;8.82;2.10;;;;;;;13.14;100.00;98148.50;5053456;28;20032;-77
2023/03/08 11:14:18;;;;;;;8.88;1.45;;;;;;;13.25;100.00;98145.91;5047802;28;20396;-77
2023/03/08 11:17:13;;;;;;;6.20;1.65;;;;;;;13.37;100.00;98163.31;5098953;28;20034;-77
2023/03/08 11:20:09;;;;;;;6.93;1.17;;;;;;;13.48;100.00;98152.34;5081509;28;20027;-77
2023/03/08 11:22:40;;;;;;;5.10;1.52;;;;;;;13.63;100.00;98165.38;5082421;28;20056;-77
2023/03/08 11:25:25;;;;;;;9.40;1.70;;;;;;;13.75;100.00;98161.59;5080766;28;20577;-77
2023/03/08 11:28:15;;;;;;;6.80;1.50;;;;;;;13.85;100.00;98155.41;5094823;28;20036;-77